< < Back
Terminal Aerodrome Forecast


Current Version              Previous Versions:   1  2  3  4  5  6  7  8  9  

Terminal Aerodrome Forecast

242
FTUS42 KTAE 021120
TAFVLD
TAF
KVLD 021120Z 0212/0312 13004KT 5SM SHRA BR BKN004
     FM021400 15005KT P6SM VCSH BKN025
     FM021600 20005KT P6SM VCTS BKN050CB
     FM030000 00000KT P6SM BKN250=

Latest METAR

969
SAUS70 KWBC 021300 RRH
MTRVLD
METAR KVLD 021253Z 04005KT 10SM -RA FEW004 BKN055 OVC070 23/23 A3008 RMK
AO2 LTG DSNT SE SLP190 P0007 T02330233


USA.gov is the U.S. government's official web portal to all federal, state and local government web resources and services.